createdAt,value
2022-10-29T00:00:17.047Z,146381.78
2022-10-29T00:02:44.118Z,146367.16
2022-10-29T00:05:11.177Z,146352.56
2022-10-29T00:07:38.293Z,146344.03
2022-10-29T00:10:05.999Z,146351.34
2022-10-29T00:12:33.229Z,146335.50
2022-10-29T00:15:00.292Z,146336.75
2022-10-29T00:17:27.357Z,146308.72
2022-10-29T00:19:54.378Z,146348.91
2022-10-29T00:22:21.584Z,146344.03
2022-10-29T00:24:48.608Z,146334.31
2022-10-29T00:27:15.678Z,146307.50
2022-10-29T00:29:42.708Z,146314.84
2022-10-29T00:32:10.066Z,146190.69
2022-10-29T00:34:37.609Z,146313.59
2022-10-29T00:37:05.370Z,146229.63
2022-10-29T00:39:35.549Z,146255.19
2022-10-29T00:42:02.544Z,146298.97
2022-10-29T00:44:32.663Z,146239.34
2022-10-29T00:47:28.305Z,146266.13
2022-10-29T00:50:23.093Z,146275.84
2022-10-29T00:52:52.076Z,146295.31
2022-10-29T00:55:20.193Z,146215.03
2022-10-29T00:57:52.442Z,146307.50
2022-10-29T01:00:20.942Z,146295.31
2022-10-29T01:02:48.331Z,146312.38
2022-10-29T01:05:19.425Z,146326.97
2022-10-29T01:07:47.234Z,146308.72
2022-10-29T01:10:16.318Z,146285.59
2022-10-29T01:12:52.067Z,146295.31
2022-10-29T01:15:40.236Z,146281.97
2022-10-29T01:18:20.266Z,146264.91
2022-10-29T01:21:06.183Z,146269.78
2022-10-29T01:24:08.573Z,146266.13
2022-10-29T01:26:38.204Z,146240.56
2022-10-29T01:29:23.789Z,146240.56
2022-10-29T01:32:26.556Z,146227.22
2022-10-29T01:34:56.626Z,146233.28
2022-10-29T01:37:32.154Z,146217.44
2022-10-29T01:40:11.694Z,146208.94
2022-10-29T01:43:07.274Z,146205.28
2022-10-29T01:45:42.094Z,146185.78
2022-10-29T01:48:13.737Z,146185.78
2022-10-29T01:50:45.451Z,146120.09
2022-10-29T01:53:12.880Z,146166.31
2022-10-29T01:55:39.953Z,146157.81
2022-10-29T01:58:07.773Z,146101.84
2022-10-29T02:00:51.109Z,146162.66
2022-10-29T02:03:48.176Z,146159.06
2022-10-29T02:06:47.200Z,146163.91
2022-10-29T02:09:27.077Z,146176.06
2022-10-29T02:12:17.658Z,146187.03
2022-10-29T02:14:56.939Z,146176.06
2022-10-29T02:17:24.873Z,146159.06
2022-10-29T02:19:51.878Z,146159.06
2022-10-29T02:22:18.850Z,146034.88
2022-10-29T02:24:45.850Z,146083.59
2022-10-29T02:27:12.874Z,146131.03
2022-10-29T02:29:39.931Z,146132.28
2022-10-29T02:32:06.893Z,146131.03
2022-10-29T02:34:34.243Z,146122.56
2022-10-29T02:37:01.320Z,146042.19
2022-10-29T02:39:28.350Z,146127.41
2022-10-29T02:41:55.404Z,146132.28
2022-10-29T02:44:22.398Z,146105.50
2022-10-29T02:46:49.432Z,145995.97
2022-10-29T02:49:16.473Z,146049.50
2022-10-29T02:51:43.520Z,146112.78
2022-10-29T02:54:10.558Z,146115.22
2022-10-29T02:56:37.568Z,146117.69
2022-10-29T02:59:06.508Z,146103.06
2022-10-29T03:01:36.294Z,146073.81
2022-10-29T03:04:03.407Z,146066.50
2022-10-29T03:06:30.392Z,146093.31
2022-10-29T03:08:57.621Z,146094.53
2022-10-29T03:11:24.612Z,146112.78
2022-10-29T03:13:51.593Z,146088.47
2022-10-29T03:16:18.594Z,146088.47
2022-10-29T03:18:45.628Z,146082.38
2022-10-29T03:21:12.681Z,146049.50
2022-10-29T03:23:39.654Z,146107.91
2022-10-29T03:26:06.797Z,146104.31
2022-10-29T03:28:33.842Z,146056.78
2022-10-29T03:31:00.867Z,146076.28
2022-10-29T03:33:28.342Z,145992.31
2022-10-29T03:35:57.620Z,146090.91
2022-10-29T03:38:24.828Z,146093.31
2022-10-29T03:40:52.043Z,146073.81
2022-10-29T03:43:19.171Z,145966.75
2022-10-29T03:45:57.578Z,146020.28
2022-10-29T03:48:25.632Z,145927.88
2022-10-29T03:50:57.750Z,145995.97
2022-10-29T03:53:25.799Z,145988.66
2022-10-29T03:55:54.439Z,145986.25
2022-10-29T03:58:22.277Z,145960.69
2022-10-29T04:00:56.440Z,145963.16
2022-10-29T04:03:23.564Z,145950.97
2022-10-29T04:05:50.677Z,145932.72
2022-10-29T04:08:17.913Z,145929.06
2022-10-29T04:10:50.750Z,145913.28
2022-10-29T04:13:18.713Z,145879.22
2022-10-29T04:15:45.986Z,145879.22
2022-10-29T04:18:13.420Z,145851.25
2022-10-29T04:21:08.741Z,145935.19
2022-10-29T04:29:03.632Z,145964.34
2022-10-29T04:31:30.785Z,145923.00
2022-10-29T04:33:57.767Z,145971.66
2022-10-29T04:36:24.765Z,145958.28
2022-10-29T04:38:51.756Z,145974.06
2022-10-29T04:41:18.814Z,145981.38
2022-10-29T04:43:46.104Z,145991.13
2022-10-29T04:46:13.155Z,145995.97
2022-10-29T04:48:40.200Z,146003.25
2022-10-29T04:51:07.178Z,146003.25
2022-10-29T04:53:34.334Z,145905.97
2022-10-29T04:56:03.415Z,145987.44
2022-10-29T04:58:30.398Z,145997.19
2022-10-29T05:01:02.505Z,146010.56
2022-10-29T05:03:29.831Z,145964.34
2022-10-29T05:05:57.086Z,145997.19
2022-10-29T05:08:24.067Z,145983.81
2022-10-29T05:10:51.086Z,146005.69
2022-10-29T05:13:18.122Z,146016.63
2022-10-29T05:15:53.213Z,145991.13
2022-10-29T05:18:20.863Z,146015.41
2022-10-29T05:20:47.988Z,145932.72
2022-10-29T05:23:15.463Z,145949.78
2022-10-29T05:25:42.436Z,145935.19
2022-10-29T05:28:14.508Z,146015.41
2022-10-29T05:30:41.794Z,146015.41
2022-10-29T05:33:09.813Z,146006.91
2022-10-29T05:35:37.037Z,146017.88
2022-10-29T05:38:06.288Z,146034.88
2022-10-29T05:40:33.370Z,145940.03
2022-10-29T05:43:00.892Z,146025.16
2022-10-29T05:45:28.259Z,145998.38
2022-10-29T05:48:00.318Z,146005.69
2022-10-29T05:50:28.106Z,146003.25
2022-10-29T05:53:00.013Z,145961.91
2022-10-29T05:55:28.451Z,146034.88
2022-10-29T05:57:59.892Z,145997.19
2022-10-29T06:00:29.349Z,146050.72
2022-10-29T06:02:56.939Z,145983.81
2022-10-29T06:05:24.259Z,145952.19
2022-10-29T06:08:00.220Z,146027.59
2022-10-29T06:10:29.182Z,145952.19
2022-10-29T06:12:56.229Z,146017.88
2022-10-29T06:15:23.510Z,146006.91
2022-10-29T06:17:50.626Z,146048.25
2022-10-29T06:20:20.875Z,146048.25
2022-10-29T06:22:55.566Z,145971.66
2022-10-29T06:25:22.800Z,146034.88
2022-10-29T06:28:00.777Z,145991.13
2022-10-29T06:30:29.149Z,146081.19
2022-10-29T06:32:56.613Z,146090.91
2022-10-29T06:35:23.956Z,146101.84
2022-10-29T06:37:51.339Z,146143.22
2022-10-29T06:40:18.504Z,146142.00
2022-10-29T06:42:45.544Z,146079.94
2022-10-29T06:45:12.735Z,146166.31
2022-10-29T06:47:44.699Z,146185.78
2022-10-29T06:50:13.307Z,146142.00
2022-10-29T06:52:40.302Z,146165.13
2022-10-29T06:55:08.436Z,146168.78
2022-10-29T06:57:35.613Z,146163.91
2022-10-29T07:00:07.336Z,146067.75
2022-10-29T07:02:35.645Z,146132.28
2022-10-29T07:05:02.668Z,146178.50
2022-10-29T07:07:29.861Z,146176.06
2022-10-29T07:09:58.131Z,146176.06
2022-10-29T07:12:25.105Z,146182.16
2022-10-29T07:14:52.087Z,146232.06
2022-10-29T07:17:19.054Z,146212.56
2022-10-29T07:19:46.084Z,146245.47
2022-10-29T07:22:13.053Z,146262.47
2022-10-29T07:24:40.181Z,146269.78
2022-10-29T07:27:07.288Z,146219.88
2022-10-29T07:29:35.157Z,146263.72
2022-10-29T07:32:02.152Z,146257.59
2022-10-29T07:34:29.326Z,146262.47
2022-10-29T07:36:56.571Z,146331.84
2022-10-29T07:39:23.792Z,146373.28
2022-10-29T07:41:51.478Z,146317.25
2022-10-29T07:44:20.064Z,146345.25
2022-10-29T07:46:47.037Z,146323.38
2022-10-29T07:49:14.007Z,146386.63
2022-10-29T07:51:42.191Z,146385.44
2022-10-29T07:54:14.436Z,146339.16
2022-10-29T07:56:45.105Z,146417.13
2022-10-29T07:59:15.608Z,146448.81
2022-10-29T08:01:42.766Z,146458.53
2022-10-29T08:04:10.116Z,146442.72
2022-10-29T08:06:37.249Z,146431.75
2022-10-29T08:09:04.406Z,146495.09
2022-10-29T08:11:32.718Z,146540.16
2022-10-29T08:13:59.969Z,146557.22
2022-10-29T08:16:26.944Z,146575.50
2022-10-29T08:18:53.913Z,146590.09
2022-10-29T08:21:21.162Z,146587.66
2022-10-29T08:23:48.188Z,146592.56
2022-10-29T08:26:15.280Z,146515.81
2022-10-29T08:28:42.903Z,146558.44
2022-10-29T08:31:10.011Z,146602.31
2022-10-29T08:33:36.993Z,146594.97
2022-10-29T08:36:04.244Z,146676.63
2022-10-29T08:38:31.220Z,146724.19
2022-10-29T08:41:40.583Z,146713.22
2022-10-29T08:44:43.519Z,146741.25
2022-10-29T08:47:16.772Z,146799.78
2022-10-29T08:50:01.228Z,146785.16
2022-10-29T08:52:30.548Z,146779.03
2022-10-29T08:55:12.727Z,146804.66
2022-10-29T08:57:47.223Z,146846.09
2022-10-29T09:00:18.276Z,146875.34
2022-10-29T09:02:45.660Z,146860.72
2022-10-29T09:05:19.251Z,146918.03
2022-10-29T09:08:19.782Z,146899.75
2022-10-29T09:10:55.613Z,146921.72
2022-10-29T09:13:40.469Z,146985.09
2022-10-29T09:16:17.454Z,147008.31
2022-10-29T09:19:05.998Z,146969.25
2022-10-29T09:21:54.403Z,147041.28
2022-10-29T09:24:43.159Z,147099.78
2022-10-29T09:27:47.354Z,147110.81
2022-10-29T09:30:17.986Z,147099.78
2022-10-29T09:32:56.619Z,147073.00
2022-10-29T09:35:38.025Z,147102.25
2022-10-29T09:38:18.788Z,147070.53
2022-10-29T09:40:46.495Z,147119.34
2022-10-29T09:43:18.636Z,147149.81
2022-10-29T09:45:52.180Z,147160.84
2022-10-29T09:48:29.137Z,147176.69
2022-10-29T09:51:26.886Z,147212.06
2022-10-29T09:53:55.208Z,147226.72
2022-10-29T09:56:22.515Z,147231.59
2022-10-29T09:58:56.012Z,147213.28
2022-10-29T10:01:23.218Z,147177.88
2022-10-29T10:03:58.317Z,147179.13
2022-10-29T10:06:25.427Z,147241.34
2022-10-29T10:09:04.880Z,147309.75
2022-10-29T10:11:41.997Z,147347.63
2022-10-29T10:14:19.349Z,147376.91
2022-10-29T10:16:46.528Z,147385.47
2022-10-29T10:19:23.815Z,147343.97
2022-10-29T10:22:05.183Z,147380.59
2022-10-29T10:24:36.814Z,147365.94
2022-10-29T10:27:19.413Z,147412.34
2022-10-29T10:30:04.401Z,147450.19
2022-10-29T10:32:32.066Z,147451.38
2022-10-29T10:34:59.073Z,147539.34
2022-10-29T10:37:31.476Z,147580.88
2022-10-29T10:40:04.496Z,147620.00
2022-10-29T10:42:37.207Z,147651.75
2022-10-29T10:45:17.731Z,147684.75
2022-10-29T10:47:50.727Z,147732.47
2022-10-29T10:50:32.178Z,147789.91
2022-10-29T10:53:03.392Z,147859.56
2022-10-29T10:55:32.852Z,147873.00
2022-10-29T10:58:19.364Z,147886.47
2022-10-29T11:01:06.198Z,147952.56
2022-10-29T11:03:45.131Z,147959.88
2022-10-29T11:06:20.581Z,147967.22
2022-10-29T11:09:38.824Z,148065.03
2022-10-29T11:12:27.934Z,148090.75
2022-10-29T11:15:03.369Z,148123.75
2022-10-29T11:17:39.339Z,148131.06
2022-10-29T11:20:16.045Z,148136.00
2022-10-29T11:23:04.284Z,148186.19
2022-10-29T11:25:43.019Z,148192.31
2022-10-29T11:28:29.283Z,148194.75
2022-10-29T11:31:05.071Z,148224.13
2022-10-29T11:33:48.117Z,148213.09
2022-10-29T11:36:21.572Z,148260.84
2022-10-29T11:39:03.907Z,148236.34
2022-10-29T11:41:44.037Z,148194.75
2022-10-29T11:44:13.367Z,148277.94
2022-10-29T11:47:25.298Z,148291.41
2022-10-29T11:50:25.826Z,148301.19
2022-10-29T11:53:23.850Z,148320.81
2022-10-29T11:56:12.014Z,148317.13
2022-10-29T11:58:47.705Z,148334.28
2022-10-29T12:01:41.088Z,148337.91
2022-10-29T12:04:31.742Z,148326.91
2022-10-29T12:07:21.222Z,148330.59
2022-10-29T12:10:11.741Z,148339.16
2022-10-29T12:12:56.203Z,148339.16
2022-10-29T12:15:35.191Z,148351.41
2022-10-29T12:18:15.685Z,148380.81
2022-10-29T12:21:01.318Z,148383.25
2022-10-29T12:23:43.537Z,148395.50
2022-10-29T12:26:29.189Z,148361.25
2022-10-29T12:29:06.095Z,148382.03
2022-10-29T12:31:37.549Z,148390.63
2022-10-29T12:34:46.509Z,148395.50
2022-10-29T12:37:22.704Z,148382.03
2022-10-29T12:40:20.583Z,148315.91
2022-10-29T12:42:49.396Z,148351.41
2022-10-29T12:45:59.528Z,148366.16
2022-10-29T12:48:37.250Z,148355.09
2022-10-29T12:51:22.583Z,148397.97
2022-10-29T12:54:13.820Z,148405.28
2022-10-29T12:56:44.987Z,148397.97
2022-10-29T12:59:41.697Z,148406.50
2022-10-29T13:02:17.948Z,148400.41
2022-10-29T13:05:06.964Z,148406.50
2022-10-29T13:07:34.327Z,148389.41
2022-10-29T13:10:23.532Z,148378.34
2022-10-29T13:12:59.550Z,148386.94
2022-10-29T13:15:35.169Z,148368.56
2022-10-29T13:18:12.306Z,148361.25
2022-10-29T13:20:41.826Z,148351.41
2022-10-29T13:23:24.169Z,148362.47
2022-10-29T13:25:53.214Z,148339.16
2022-10-29T13:28:20.147Z,148341.59
2022-10-29T13:30:59.182Z,148333.03
2022-10-29T13:33:26.213Z,148339.16
2022-10-29T13:35:53.206Z,148336.69
2022-10-29T13:38:52.142Z,148329.38
2022-10-29T13:41:48.668Z,148336.69
2022-10-29T13:44:24.381Z,148322.03
2022-10-29T13:47:01.017Z,148308.56
2022-10-29T13:49:34.680Z,148291.41
2022-10-29T13:52:06.376Z,148292.66
2022-10-29T13:54:43.600Z,148268.16
2022-10-29T13:57:33.395Z,148273.06
2022-10-29T14:00:07.337Z,148260.84
2022-10-29T14:02:45.163Z,148260.84
2022-10-29T14:05:14.826Z,148251.06
2022-10-29T14:07:57.294Z,148254.69
2022-10-29T14:13:24.671Z,148262.06
2022-10-29T14:16:08.526Z,148241.22
2022-10-29T14:18:40.815Z,148232.72
2022-10-29T14:21:28.681Z,148204.53
2022-10-29T14:23:58.680Z,148188.66
2022-10-29T14:26:27.267Z,148069.94
2022-10-29T14:28:54.485Z,148176.41
2022-10-29T14:31:26.052Z,148113.97
2022-10-29T14:34:01.048Z,148167.81
2022-10-29T14:36:46.926Z,148088.28
2022-10-29T14:39:37.089Z,148140.91
2022-10-29T14:42:23.571Z,148139.66
2022-10-29T14:44:54.308Z,148140.91
2022-10-29T14:47:32.366Z,148121.31
2022-10-29T14:50:04.946Z,148087.06
2022-10-29T14:52:37.931Z,148038.13
2022-10-29T14:55:22.721Z,148046.69
2022-10-29T14:58:05.104Z,148019.78
2022-10-29T15:00:36.823Z,147995.34
2022-10-29T15:03:08.534Z,147999.03
2022-10-29T15:05:37.086Z,147874.22
2022-10-29T15:08:09.867Z,147972.13
2022-10-29T15:10:47.238Z,147969.66
2022-10-29T15:13:22.508Z,147932.91
2022-10-29T15:16:05.269Z,147908.47
2022-10-29T15:18:33.155Z,147934.16
2022-10-29T15:21:00.669Z,147910.91
2022-10-29T15:23:34.168Z,147849.78
2022-10-29T15:26:08.748Z,147884.03
2022-10-29T15:28:45.671Z,147818.00
2022-10-29T15:31:21.575Z,147848.56
2022-10-29T15:33:53.211Z,147813.13
2022-10-29T15:36:20.813Z,147796.00
2022-10-29T15:38:52.165Z,147721.44
2022-10-29T15:41:20.348Z,147752.03
2022-10-29T15:43:56.256Z,147723.91
2022-10-29T15:46:24.541Z,147690.84
2022-10-29T15:48:52.069Z,147571.13
2022-10-29T15:51:23.350Z,147656.66
2022-10-29T15:53:50.393Z,147436.75
2022-10-29T15:56:17.479Z,147610.22
2022-10-29T15:58:44.477Z,147585.81
2022-10-29T16:01:13.706Z,147637.13
2022-10-29T16:03:42.939Z,147569.91
2022-10-29T16:06:29.595Z,147627.34
2022-10-29T16:08:58.542Z,147591.91
2022-10-29T16:11:26.887Z,147610.22
2022-10-29T16:13:55.126Z,147609.03
2022-10-29T16:16:24.924Z,147580.88
2022-10-29T16:18:52.728Z,147512.53
2022-10-29T16:21:22.675Z,147578.47
2022-10-29T16:23:51.307Z,147576.00
2022-10-29T16:26:25.076Z,147490.53
2022-10-29T16:28:53.243Z,147524.72
2022-10-29T16:31:23.775Z,147556.47
2022-10-29T16:33:56.652Z,147551.59
2022-10-29T16:36:24.332Z,147468.50
2022-10-29T16:38:51.449Z,147522.28
2022-10-29T16:41:20.244Z,147522.28
2022-10-29T16:43:47.958Z,147527.16
2022-10-29T16:46:15.324Z,147407.47
2022-10-29T16:48:42.481Z,147414.75
2022-10-29T16:51:09.577Z,147473.38
2022-10-29T16:53:36.620Z,147480.72
2022-10-29T16:56:03.996Z,147473.38
2022-10-29T16:58:31.004Z,147422.09
2022-10-29T17:01:05.709Z,147345.16
2022-10-29T17:03:34.171Z,147445.28
2022-10-29T17:06:06.417Z,147380.59
2022-10-29T17:08:38.484Z,147437.94
2022-10-29T17:11:09.855Z,147346.38
2022-10-29T17:13:37.557Z,147302.47
2022-10-29T17:16:09.176Z,147406.19
2022-10-29T17:18:36.468Z,147336.63
2022-10-29T17:21:03.925Z,147375.72
2022-10-29T17:23:32.607Z,147383.00
2022-10-29T17:26:01.294Z,147282.88
2022-10-29T17:28:28.607Z,147282.88
2022-10-29T17:30:55.711Z,147336.63
2022-10-29T17:33:22.894Z,147328.06
2022-10-29T17:35:50.069Z,147302.47
2022-10-29T17:38:17.182Z,147207.19
2022-10-29T17:40:46.040Z,147220.63
2022-10-29T17:43:13.339Z,147263.38
2022-10-29T17:45:41.778Z,147246.28
2022-10-29T17:48:08.856Z,147229.19
2022-10-29T17:50:36.114Z,147237.72
2022-10-29T17:53:03.391Z,147229.19
2022-10-29T17:55:30.547Z,147193.78
2022-10-29T17:57:57.831Z,147226.72
2022-10-29T18:00:25.505Z,147220.63
2022-10-29T18:02:52.620Z,147146.19
2022-10-29T18:05:19.716Z,147219.41
2022-10-29T18:07:46.738Z,147207.19
2022-10-29T18:10:13.786Z,147102.25
2022-10-29T18:12:40.769Z,147212.06
2022-10-29T18:15:08.421Z,147220.63
2022-10-29T18:17:36.494Z,147214.50
2022-10-29T18:20:03.872Z,147124.22
2022-10-29T18:22:30.875Z,147204.72
2022-10-29T18:24:58.417Z,147181.56
2022-10-29T18:27:25.443Z,147163.25
2022-10-29T18:29:52.460Z,147165.72
2022-10-29T18:32:19.922Z,147097.38
2022-10-29T18:34:46.985Z,147031.47
2022-10-29T18:37:14.003Z,147170.59
2022-10-29T18:39:40.983Z,147082.75
2022-10-29T18:42:08.072Z,147133.97
2022-10-29T18:44:35.490Z,147131.53
2022-10-29T18:47:02.592Z,147158.38
2022-10-29T18:49:29.685Z,147131.53
2022-10-29T18:51:56.691Z,147132.78
2022-10-29T18:54:24.889Z,147107.13
2022-10-29T18:56:51.968Z,147112.00
2022-10-29T18:59:18.918Z,147126.66
2022-10-29T19:01:45.961Z,147126.66
2022-10-29T19:04:14.752Z,147126.66
2022-10-29T19:06:41.927Z,147129.09
2022-10-29T19:09:10.916Z,147129.09
2022-10-29T19:11:38.455Z,147143.75
2022-10-29T19:14:07.878Z,147071.75
2022-10-29T19:16:35.385Z,147135.19
2022-10-29T19:19:07.814Z,147118.09
2022-10-29T19:21:36.822Z,147116.88
2022-10-29T19:24:05.481Z,147031.47
2022-10-29T19:26:34.319Z,147082.75
2022-10-29T19:29:02.866Z,146980.22
2022-10-29T19:31:31.388Z,147029.06
2022-10-29T19:34:00.652Z,147001.00
2022-10-29T19:36:29.454Z,146975.34
2022-10-29T19:38:56.728Z,146882.66
2022-10-29T19:41:23.928Z,146904.63
2022-10-29T19:43:51.100Z,146931.47
2022-10-29T19:46:24.411Z,146936.34
2022-10-29T19:48:53.264Z,146935.09
2022-10-29T19:51:21.464Z,146910.72
2022-10-29T19:53:51.274Z,146905.84
2022-10-29T19:56:19.237Z,146907.03
2022-10-29T19:58:46.796Z,146821.72
2022-10-29T20:01:17.195Z,146821.72
2022-10-29T20:03:45.243Z,146891.22
2022-10-29T20:06:12.640Z,146880.22
2022-10-29T20:08:39.832Z,146858.31
2022-10-29T20:11:07.355Z,146766.88
2022-10-29T20:13:34.808Z,146853.44
2022-10-29T20:16:11.613Z,146850.97
2022-10-29T20:18:38.608Z,146805.84
2022-10-29T20:23:38.235Z,146738.84
2022-10-29T20:26:06.892Z,146727.84
2022-10-29T20:28:34.395Z,146785.16
2022-10-29T20:31:12.819Z,146718.09
2022-10-29T20:33:39.932Z,146736.38
2022-10-29T20:36:07.144Z,146751.00
2022-10-29T20:38:34.280Z,146754.66
2022-10-29T20:41:01.292Z,146751.00
2022-10-29T20:43:28.503Z,146759.53
2022-10-29T20:46:00.272Z,146741.25
2022-10-29T20:48:28.551Z,146746.13
2022-10-29T20:50:55.710Z,146704.66
2022-10-29T20:53:22.700Z,146721.75
2022-10-29T20:55:52.469Z,146648.59
2022-10-29T20:58:20.309Z,146715.63
2022-10-29T21:00:47.861Z,146721.75
2022-10-29T21:03:15.960Z,146693.69
2022-10-29T21:05:43.108Z,146676.63
2022-10-29T21:08:10.399Z,146682.69
2022-10-29T21:10:37.441Z,146655.88
2022-10-29T21:13:04.818Z,146587.66
2022-10-29T21:15:35.812Z,146568.16
2022-10-29T21:18:02.926Z,146605.94
2022-10-29T21:20:33.927Z,146524.34
2022-10-29T21:23:01.100Z,146538.94
2022-10-29T21:25:28.121Z,146537.75
2022-10-29T21:27:55.807Z,146470.75
2022-10-29T21:30:23.200Z,146446.41
2022-10-29T21:32:50.254Z,146470.75
2022-10-29T21:35:17.419Z,146482.94
2022-10-29T21:37:44.912Z,146439.06
2022-10-29T21:40:12.604Z,146453.66
2022-10-29T21:42:40.058Z,146356.22
2022-10-29T21:45:07.408Z,146326.97
2022-10-29T21:47:34.442Z,146497.53
2022-10-29T21:50:01.489Z,146485.34
2022-10-29T21:52:28.471Z,146470.75
2022-10-29T21:54:55.494Z,146470.75
2022-10-29T21:57:22.546Z,146487.81
2022-10-29T21:59:50.808Z,146465.88
2022-10-29T22:02:17.888Z,146487.81
2022-10-29T22:04:45.063Z,146473.16
2022-10-29T22:07:12.099Z,146461.00
2022-10-29T22:09:39.073Z,146431.75
2022-10-29T22:12:06.388Z,146481.69
2022-10-29T22:14:33.478Z,146461.00
2022-10-29T22:17:00.482Z,146413.47
2022-10-29T22:19:27.587Z,146436.63
2022-10-29T22:21:55.759Z,146401.28
2022-10-29T22:24:22.751Z,146400.03
2022-10-29T22:26:49.860Z,146407.34
2022-10-29T22:29:16.850Z,146406.16
2022-10-29T22:31:44.039Z,146465.88
2022-10-29T22:34:11.024Z,146481.69
2022-10-29T22:36:38.053Z,146431.75
2022-10-29T22:39:05.287Z,146480.47
2022-10-29T22:41:32.303Z,146456.13
2022-10-29T22:43:59.452Z,146481.69
2022-10-29T22:46:27.943Z,146417.13
2022-10-29T22:48:55.142Z,146440.28
2022-10-29T22:51:24.798Z,146434.19
2022-10-29T22:53:53.047Z,146434.19
2022-10-29T22:56:40.755Z,146428.13
2022-10-29T22:59:07.800Z,146336.75
2022-10-29T23:01:40.270Z,146434.19
2022-10-29T23:04:11.269Z,146404.91
2022-10-29T23:06:38.236Z,146407.34
2022-10-29T23:09:05.346Z,146404.91
2022-10-29T23:11:34.867Z,146379.34
2022-10-29T23:14:02.804Z,146344.03
2022-10-29T23:16:31.811Z,146373.28
2022-10-29T23:19:01.646Z,146400.03
2022-10-29T23:21:29.428Z,146404.91
2022-10-29T23:23:57.152Z,146314.84
2022-10-29T23:26:25.203Z,146395.16
2022-10-29T23:28:52.586Z,146353.78
2022-10-29T23:31:22.090Z,146361.09
2022-10-29T23:33:51.471Z,146380.56
2022-10-29T23:36:20.723Z,146232.06
2022-10-29T23:38:47.805Z,146376.91
2022-10-29T23:41:14.811Z,146375.69
2022-10-29T23:43:41.883Z,146363.50
2022-10-29T23:46:08.970Z,146340.38
2022-10-29T23:48:35.930Z,146298.97
2022-10-29T23:51:03.016Z,146314.84
2022-10-29T23:53:30.004Z,146291.72
2022-10-29T23:55:57.079Z,146375.69
2022-10-29T23:58:24.371Z,146378.16
